Time;durP1;ratioP1;P1;durP2;ratioP2;P2;SDS_P1;SDS_P2;PMS_P1;PMS_P2;Temp;Humidity;BMP_temperature;BMP_pressure;BME280_temperature;BME280_humidity;BME280_pressure;Samples;Min_cycle;Max_cycle;Signal;HPM_P1;HPM_P2
2021/08/02 00:00:05;;;;;;;8.05;4.07;;;18.90;99.90;;;19.41;65.58;101243.38;5074894;28;20044;-76
2021/08/02 00:02:55;;;;;;;6.78;3.30;;;19.00;99.90;;;19.47;65.27;101236.91;5075088;28;20139;-75
2021/08/02 00:05:24;;;;;;;5.32;3.35;;;19.10;99.90;;;19.29;67.05;101241.06;5074568;28;20399;-77
2021/08/02 00:07:58;;;;;;;6.03;3.60;;;19.00;99.90;;;19.29;66.37;101233.03;5056732;28;20567;-76
2021/08/02 00:10:31;;;;;;;5.15;3.20;;;18.90;99.90;;;19.09;66.82;101207.78;5074692;28;20052;-76
2021/08/02 00:13:06;;;;;;;7.30;3.58;;;18.80;99.90;;;19.30;66.55;101237.44;5073092;28;20057;-74
2021/08/02 00:15:36;;;;;;;9.02;3.67;;;18.90;99.90;;;19.26;66.91;101230.44;5074351;28;20055;-77
2021/08/02 00:18:06;;;;;;;10.70;3.35;;;18.90;99.90;;;19.32;66.91;101237.38;5074454;28;20045;-77
2021/08/02 00:20:38;;;;;;;7.32;3.70;;;18.90;99.90;;;19.25;67.11;101233.16;5056500;28;20048;-77
2021/08/02 00:23:12;;;;;;;8.57;3.65;;;18.90;99.90;;;19.19;67.18;101241.41;5074535;28;20082;-75
2021/08/02 00:25:40;;;;;;;8.82;3.67;;;18.80;99.90;;;19.29;66.39;101241.06;5074033;28;20041;-76
2021/08/02 00:28:10;;;;;;;6.53;3.75;;;18.90;99.90;;;19.26;67.05;101243.84;5074236;28;20060;-75
2021/08/02 00:30:39;;;;;;;8.98;3.47;;;18.90;99.90;;;19.26;67.05;101235.78;5074383;28;20109;-76
2021/08/02 00:33:09;;;;;;;6.43;3.20;;;18.80;99.90;;;19.22;67.12;101238.66;5074050;28;20052;-76
2021/08/02 00:35:55;;;;;;;9.02;3.80;;;18.80;99.90;;;19.17;68.20;101240.59;5074104;28;20578;-76
2021/08/02 00:38:34;;;;;;;7.40;3.25;;;18.70;99.90;;;19.22;67.71;101235.97;5074316;28;20044;-76
2021/08/02 00:41:44;;;;;;;5.63;3.55;;;18.80;99.90;;;19.25;67.33;101238.53;5074124;28;20056;-76
2021/08/02 00:45:10;;;;;;;5.38;3.15;;;18.80;99.90;;;19.22;67.74;101227.94;5073745;28;20371;-76
2021/08/02 00:47:47;;;;;;;5.38;3.28;;;18.80;99.90;;;19.25;67.56;101231.38;5056336;28;20056;-75
2021/08/02 00:50:22;;;;;;;7.57;3.40;;;18.80;99.90;;;19.27;67.92;101234.00;5056038;28;20046;-76
2021/08/02 00:52:56;;;;;;;12.38;4.10;;;18.80;99.90;;;19.23;68.23;101227.88;5073897;28;20049;-77
2021/08/02 00:55:30;;;;;;;9.65;3.35;;;18.90;99.90;;;19.29;67.54;101237.50;5055651;28;20049;-77
2021/08/02 00:58:03;;;;;;;5.63;3.15;;;18.90;99.90;;;19.24;68.38;101239.47;5073749;28;20102;-77
2021/08/02 01:00:34;;;;;;;8.40;3.50;;;18.80;99.90;;;19.26;67.89;101238.47;5073786;28;20047;-76
2021/08/02 01:03:06;;;;;;;;;;;18.90;99.90;;;19.25;67.58;101226.00;5074230;28;20040;-76
2021/08/02 01:05:37;;;;;;;5.90;3.20;;;18.90;99.90;;;19.26;67.55;101243.00;5073384;28;19989;-76
2021/08/02 01:08:12;;;;;;;9.13;3.55;;;18.90;99.90;;;19.14;67.78;101217.47;5073650;28;20060;-76
2021/08/02 01:10:46;;;;;;;7.82;3.28;;;18.90;99.90;;;19.26;67.53;101243.00;5073653;28;20126;-77
2021/08/02 01:13:17;;;;;;;8.95;3.53;;;18.80;99.90;;;19.28;67.65;101247.34;5073161;28;20037;-76
2021/08/02 01:15:55;;;;;;;5.80;3.35;;;18.90;99.90;;;19.30;67.60;101247.31;5072694;28;20056;-76
2021/08/02 01:18:31;;;;;;;7.35;3.47;;;18.90;99.90;;;19.31;67.72;101243.69;5073718;28;20093;-75
2021/08/02 01:21:04;;;;;;;7.30;3.50;;;18.90;99.90;;;19.19;67.64;101219.97;5073527;28;20049;-77
2021/08/02 01:23:36;;;;;;;7.70;3.97;;;18.90;99.90;;;19.35;67.16;101243.59;5073549;28;20053;-75
2021/08/02 01:27:10;;;;;;;8.98;3.30;;;18.90;99.90;;;19.12;67.38;101224.69;5073150;28;20383;-76
2021/08/02 01:30:24;;;;;;;6.78;3.60;;;18.90;99.90;;;19.14;67.78;101246.97;5072121;28;20044;-76
2021/08/02 01:32:57;;;;;;;6.85;3.53;;;18.70;99.90;;;19.16;68.40;101245.09;5073402;28;20040;-77
2021/08/02 01:35:26;;;;;;;10.07;3.35;;;18.70;99.90;;;19.10;68.88;101247.09;5073418;28;20125;-76
2021/08/02 01:37:55;;;;;;;7.18;3.70;;;18.70;99.90;;;19.02;69.09;101243.78;5055244;28;20036;-76
2021/08/02 01:40:28;;;;;;;4.57;3.10;;;18.60;99.90;;;18.97;69.43;101245.75;5055370;28;20048;-77
2021/08/02 01:43:03;;;;;;;8.70;3.67;;;18.50;99.90;;;18.95;69.69;101232.38;5073319;28;20044;-77
2021/08/02 01:45:49;;;;;;;13.63;3.97;;;18.50;99.90;;;18.99;69.73;101238.56;5071960;28;20095;-75
2021/08/02 01:48:35;;;;;;;6.20;3.13;;;18.50;99.90;;;18.91;69.23;101236.13;5073217;28;20468;-75
2021/08/02 01:51:10;;;;;;;9.05;3.40;;;18.50;99.90;;;18.92;69.91;101245.91;5071629;28;20057;-74
2021/08/02 01:53:47;;;;;;;10.38;3.97;;;18.50;99.90;;;18.97;68.92;101235.03;5073222;28;20413;-75
2021/08/02 01:56:20;;;;;;;9.77;3.53;;;18.60;99.90;;;18.95;68.84;101226.16;5072818;28;20045;-75
2021/08/02 01:58:59;;;;;;;6.10;3.70;;;18.60;99.90;;;18.91;70.27;101239.66;5073118;28;20056;-73
2021/08/02 02:01:43;;;;;;;6.82;3.58;;;18.50;99.90;;;18.88;70.30;101242.44;5073034;28;20125;-73
2021/08/02 02:04:14;;;;;;;8.25;3.85;;;18.50;99.90;;;18.86;69.85;101236.25;5073165;28;20389;-74
2021/08/02 02:06:50;;;;;;;4.10;3.45;;;18.40;99.90;;;18.82;69.63;101237.28;5055157;28;20041;-75
2021/08/02 02:09:32;;;;;;;6.03;3.33;;;18.40;99.90;;;18.71;69.53;101228.72;5073020;28;20056;-75
2021/08/02 02:12:03;;;;;;;7.03;3.90;;;18.30;99.90;;;18.65;69.71;101239.63;5072782;28;20405;-76
2021/08/02 02:14:39;;;;;;;7.95;3.40;;;18.20;99.90;;;18.45;70.27;101217.94;5055006;28;20051;-74
2021/08/02 02:17:16;;;;;;;9.95;3.60;;;18.10;99.90;;;18.51;69.94;101235.59;5072980;28;20044;-75
2021/08/02 02:19:50;;;;;;;13.57;3.88;;;18.10;99.90;;;18.51;69.49;101233.81;5072955;28;20079;-74
2021/08/02 02:22:26;;;;;;;13.88;4.03;;;18.00;99.90;;;18.42;69.71;101239.47;5072584;28;20032;-74
2021/08/02 02:24:56;;;;;;;8.40;3.67;;;18.00;99.90;;;18.38;70.17;101236.88;5073671;28;20083;-75
2021/08/02 02:27:33;;;;;;;6.07;3.78;;;17.90;99.90;;;18.42;69.24;101236.78;5075164;28;20049;-75
2021/08/02 02:30:10;;;;;;;5.38;3.38;;;17.90;99.90;;;18.34;68.93;101237.91;5076688;28;20048;-74
2021/08/02 02:32:43;;;;;;;7.63;3.47;;;17.90;99.90;;;18.37;69.03;101241.34;5058846;28;20052;-74
2021/08/02 02:35:17;;;;;;;5.90;3.30;;;17.90;99.90;;;18.35;68.97;101234.31;5076554;28;20110;-74
2021/08/02 02:37:47;;;;;;;;;;;17.90;99.90;;;18.38;69.07;101244.91;5075720;28;20040;-74
2021/08/02 02:40:17;;;;;;;7.75;3.65;;;17.90;99.90;;;18.38;68.89;101234.22;5075117;28;20019;-75
2021/08/02 02:42:48;;;;;;;8.30;3.88;;;18.00;99.90;;;18.36;68.86;101236.94;5058686;28;20056;-74
2021/08/02 02:45:21;;;;;;;8.68;3.70;;;18.00;99.90;;;18.36;68.68;101236.94;5074953;28;20045;-72
2021/08/02 02:47:51;;;;;;;14.70;4.18;;;18.00;99.90;;;18.37;68.60;101238.69;5058515;28;20056;-75
2021/08/02 02:50:22;;;;;;;8.45;3.83;;;18.00;99.90;;;18.38;68.59;101240.44;5058345;28;20044;-74
2021/08/02 02:52:52;;;;;;;10.55;3.90;;;18.00;99.90;;;18.33;68.73;101242.38;5058395;28;20049;-74
2021/08/02 02:55:24;;;;;;;5.00;3.08;;;17.90;99.90;;;18.34;68.69;101238.78;5058141;28;20475;-74
2021/08/02 02:57:57;;;;;;;5.65;3.20;;;17.90;99.90;;;18.31;68.60;101238.84;5075841;28;20481;-75
2021/08/02 03:00:29;;;;;;;9.57;3.20;;;17.90;99.90;;;18.07;68.64;101207.47;5076088;28;20049;-74
2021/08/02 03:03:00;;;;;;;9.13;3.90;;;17.80;99.90;;;18.24;69.30;101242.66;5058056;28;20045;-73
2021/08/02 03:05:30;;;;;;;10.88;3.78;;;17.80;99.90;;;18.25;69.90;101243.53;5075883;28;20044;-74
2021/08/02 03:08:01;;;;;;;;;;;17.80;99.90;;;18.23;70.57;101243.59;5058109;28;20049;-74
2021/08/02 03:10:31;;;;;;;9.55;3.78;;;17.80;99.90;;;18.22;71.29;101249.84;5074704;28;19924;-74
2021/08/02 03:13:01;;;;;;;13.60;4.78;;;17.80;99.90;;;18.23;71.43;101238.25;5057582;28;20044;-75
2021/08/02 03:15:29;;;;;;;8.68;3.83;;;17.80;99.90;;;18.21;71.54;101247.22;5075832;28;20106;-75
2021/08/02 03:17:58;;;;;;;10.18;3.63;;;17.80;99.90;;;18.18;71.74;101245.50;5075669;28;20120;-74
2021/08/02 03:20:27;;;;;;;11.55;3.83;;;17.70;99.90;;;18.16;71.53;101250.03;5075356;28;20513;-74
2021/08/02 03:23:02;;;;;;;7.85;3.90;;;17.70;99.90;;;18.08;70.78;101252.06;5075427;28;20052;-74
2021/08/02 03:25:34;;;;;;;9.38;3.20;;;17.60;99.90;;;18.04;70.98;101256.63;5075310;28;20048;-74
2021/08/02 03:28:10;;;;;;;6.68;3.55;;;17.60;99.90;;;17.99;72.43;101250.53;5057312;28;20057;-75
2021/08/02 03:30:41;;;;;;;10.73;3.50;;;17.60;99.90;;;17.95;73.11;101254.22;5075522;28;20052;-74
2021/08/02 03:33:15;;;;;;;6.60;3.42;;;17.60;99.90;;;17.89;72.74;101261.53;5075169;28;20079;-74
2021/08/02 03:35:45;;;;;;;9.43;3.60;;;17.50;99.90;;;17.83;73.49;101256.34;5074900;28;20390;-74
2021/08/02 03:38:20;;;;;;;5.53;3.40;;;17.40;99.90;;;17.66;73.94;101224.72;5075268;28;20048;-74
2021/08/02 03:40:49;;;;;;;7.25;3.08;;;17.40;99.90;;;17.68;74.40;101248.75;5075637;28;20055;-75
2021/08/02 03:43:22;;;;;;;7.80;3.35;;;17.30;99.90;;;17.71;74.62;101246.00;5074955;28;20040;-74
2021/08/02 03:45:52;;;;;;;3.53;2.95;;;17.20;99.90;;;17.63;74.39;101248.00;5057165;28;20071;-74
2021/08/02 03:48:23;;;;;;;7.47;3.70;;;17.20;99.90;;;17.53;74.00;101255.41;5075417;28;20048;-75
2021/08/02 03:50:51;;;;;;;9.73;3.40;;;17.10;99.90;;;17.48;73.59;101259.09;5075048;28;20508;-74
2021/08/02 03:53:20;;;;;;;6.20;3.47;;;17.10;99.90;;;17.44;73.10;101257.41;5075259;28;20502;-74
2021/08/02 03:55:49;;;;;;;8.82;3.60;;;17.00;99.90;;;17.31;73.00;101250.59;5075029;28;20044;-74
2021/08/02 03:58:23;;;;;;;4.05;3.70;;;17.00;99.90;;;17.27;73.51;101239.13;5074929;28;20052;-75
2021/08/02 04:00:52;;;;;;;6.23;3.80;;;17.00;99.90;;;17.34;73.25;101270.16;5074819;28;20075;-75
2021/08/02 04:03:20;;;;;;;7.10;4.25;;;16.90;99.90;;;17.20;73.19;101248.22;5074731;28;20140;-74
2021/08/02 04:05:48;;;;;;;6.90;3.60;;;16.90;99.90;;;17.32;73.51;101277.34;5074640;28;20087;-74
2021/08/02 04:08:17;;;;;;;9.90;4.05;;;16.90;99.90;;;17.39;73.47;101280.72;5074631;28;20131;-75
2021/08/02 04:10:45;;;;;;;3.70;3.35;;;16.90;99.90;;;17.37;74.18;101282.53;5074605;28;20041;-83
2021/08/02 04:13:17;;;;;;;4.70;3.40;;;16.90;99.90;;;17.24;74.56;101265.06;5074615;28;20032;-78
2021/08/02 04:15:47;;;;;;;8.32;3.58;;;16.90;99.90;;;17.33;74.66;101280.88;5074269;28;20486;-75
2021/08/02 04:18:16;;;;;;;5.40;3.50;;;16.90;99.90;;;17.22;74.78;101256.19;5074581;28;20046;-76
2021/08/02 04:20:45;;;;;;;9.25;3.60;;;16.90;99.90;;;17.30;75.05;101286.31;5074502;28;20063;-72
2021/08/02 04:23:14;;;;;;;8.35;3.70;;;16.90;99.90;;;17.32;75.24;101285.34;5074235;28;20048;-78
2021/08/02 04:25:42;;;;;;;10.00;3.67;;;16.90;99.90;;;17.30;75.37;101283.63;5074005;28;20044;-76
2021/08/02 04:28:11;;;;;;;11.18;4.10;;;16.90;99.90;;;17.34;75.16;101285.31;5074260;28;20498;-75
2021/08/02 04:30:39;;;;;;;8.05;3.50;;;16.90;99.90;;;17.35;75.47;101289.72;5056291;28;20460;-75
2021/08/02 04:33:09;;;;;;;9.55;3.42;;;16.90;99.90;;;17.24;75.72;101271.28;5056342;28;20559;-75
2021/08/02 04:35:37;;;;;;;11.20;3.60;;;16.90;99.90;;;17.31;75.82;101285.38;5073783;28;20501;-74
2021/08/02 04:38:06;;;;;;;8.25;3.25;;;16.90;99.90;;;17.33;75.85;101287.09;5074301;28;20086;-75
2021/08/02 04:40:34;;;;;;;8.55;3.72;;;16.90;99.90;;;17.29;75.37;101279.19;5073781;28;20068;-75
2021/08/02 04:43:03;;;;;;;6.00;3.28;;;16.80;99.90;;;17.14;74.86;101283.13;5074014;28;20056;-76
2021/08/02 04:45:31;;;;;;;3.80;3.47;;;16.80;99.90;;;17.03;75.02;101261.13;5073967;28;20040;-75
2021/08/02 04:48:00;;;;;;;4.38;2.70;;;16.70;99.90;;;17.16;75.27;101286.66;5073134;28;20544;-78
2021/08/02 04:50:30;;;;;;;3.72;3.40;;;16.70;99.90;;;17.17;75.10;101285.72;5073648;28;20481;-77
2021/08/02 04:52:59;;;;;;;3.50;3.20;;;16.70;99.90;;;17.14;74.50;101288.47;5073625;28;20052;-78
2021/08/02 04:55:27;;;;;;;6.10;3.92;;;16.70;99.90;;;17.10;74.08;101289.47;5055715;28;20052;-78
2021/08/02 04:57:56;;;;;;;8.57;4.50;;;16.70;99.90;;;17.10;73.51;101294.81;5073783;28;20079;-74
2021/08/02 05:00:28;;;;;;;5.00;4.18;;;16.70;99.90;;;16.98;73.59;101263.91;5055897;28;20052;-75
2021/08/02 05:02:56;;;;;;;6.78;4.05;;;16.80;99.90;;;17.27;74.16;101291.72;5073679;28;20101;-75
2021/08/02 05:05:26;;;;;;;8.07;4.15;;;16.80;99.90;;;17.33;73.43;101294.22;5073868;28;20101;-76
2021/08/02 05:07:56;;;;;;;7.43;5.25;;;17.00;99.90;;;17.47;72.84;101295.66;5073531;28;20448;-76
2021/08/02 05:10:25;;;;;;;8.38;4.53;;;17.10;99.90;;;17.53;72.50;101305.34;5073476;28;20048;-76
2021/08/02 05:12:53;;;;;;;8.13;4.72;;;17.10;99.90;;;17.60;72.00;101298.91;5073526;28;20040;-75
2021/08/02 05:15:21;;;;;;;6.65;4.72;;;17.20;99.90;;;17.71;71.81;101299.53;5072271;28;20071;-77
2021/08/02 05:17:50;;;;;;;4.45;4.03;;;17.30;99.90;;;17.75;71.78;101290.50;5073478;28;20048;-75
2021/08/02 05:20:21;;;;;;;6.57;4.30;;;17.40;99.90;;;17.77;71.98;101304.69;5073486;28;20114;-76
2021/08/02 05:22:50;;;;;;;7.75;4.55;;;17.40;99.90;;;17.85;73.56;101305.38;5073410;28;20048;-75
2021/08/02 05:25:21;;;;;;;5.15;4.30;;;17.40;99.90;;;18.01;73.24;101309.38;5073016;28;20048;-77
2021/08/02 05:27:50;;;;;;;9.98;4.50;;;17.50;99.90;;;18.06;72.23;101304.75;5072966;28;20063;-76
2021/08/02 05:30:19;;;;;;;6.20;3.92;;;17.70;99.90;;;18.00;71.71;101272.84;5072099;28;20044;-75
2021/08/02 05:32:47;;;;;;;6.03;4.53;;;17.80;99.90;;;18.28;72.97;101316.63;5073374;28;20102;-77
2021/08/02 05:35:16;;;;;;;7.07;4.72;;;17.90;99.90;;;18.44;73.98;101314.44;5055536;28;20048;-77
2021/08/02 05:37:45;;;;;;;7.38;4.75;;;18.00;99.90;;;18.61;73.45;101318.38;5073138;28;20052;-76
2021/08/02 05:40:14;;;;;;;5.13;4.03;;;18.20;99.90;;;18.68;73.67;101327.06;5073251;28;20084;-77
2021/08/02 05:42:44;;;;;;;5.05;4.47;;;18.20;99.90;;;18.76;73.46;101323.25;5073142;28;20597;-77
2021/08/02 05:45:13;;;;;;;6.65;4.70;;;18.40;99.90;;;18.85;72.85;101328.31;5073295;28;20094;-76
2021/08/02 05:47:41;;;;;;;7.50;4.60;;;18.50;99.90;;;18.95;72.82;101339.63;5073266;28;20041;-78
2021/08/02 05:50:11;;;;;;;6.60;4.53;;;18.50;99.90;;;19.06;72.42;101331.25;5073278;28;20052;-78
2021/08/02 05:52:41;;;;;;;7.78;4.72;;;18.70;99.90;;;19.21;72.64;101330.75;5072738;28;20041;-79
2021/08/02 05:55:13;;;;;;;8.20;4.95;;;18.80;99.90;;;19.32;72.67;101325.91;5055146;28;20053;-76
2021/08/02 05:57:41;;;;;;;5.22;4.70;;;18.90;99.90;;;19.37;72.57;101321.34;5054993;28;20106;-77
2021/08/02 06:00:14;;;;;;;7.03;4.90;;;19.00;99.90;;;19.52;72.61;101334.22;5076270;28;20070;-78
2021/08/02 06:02:44;;;;;;;7.95;4.90;;;19.10;99.90;;;19.62;72.20;101333.88;5077137;28;20068;-78
2021/08/02 06:05:14;;;;;;;9.07;4.63;;;19.30;99.90;;;19.78;70.98;101328.88;5077031;28;20135;-78
2021/08/02 06:07:43;;;;;;;8.18;3.28;;;19.40;99.90;;;19.83;68.60;101332.25;5058802;28;20044;-78
2021/08/02 06:10:12;;;;;;;9.02;4.10;;;19.50;99.90;;;19.93;67.26;101328.31;5076848;28;20046;-79
2021/08/02 06:12:41;;;;;;;6.22;3.45;;;19.60;99.90;;;20.05;66.44;101330.56;5076980;28;20075;-79
2021/08/02 06:15:15;;;;;;;8.43;3.75;;;19.70;99.90;;;19.99;65.16;101305.72;5076931;28;20461;-78
2021/08/02 06:17:44;;;;;;;9.15;3.78;;;19.90;99.90;;;20.10;64.09;101325.00;5076465;28;20106;-79
2021/08/02 06:20:13;;;;;;;6.85;3.53;;;19.80;99.90;;;20.33;63.68;101334.03;5076730;28;20436;-79
2021/08/02 06:22:41;;;;;;;5.25;3.45;;;19.90;99.90;;;20.42;63.09;101314.84;5076705;28;20409;-79
2021/08/02 06:25:11;;;;;;;8.93;3.63;;;20.20;99.90;;;20.60;61.95;101338.38;5076506;28;20131;-79
2021/08/02 06:27:40;;;;;;;7.80;3.63;;;20.30;99.90;;;20.67;61.37;101326.44;5076208;28;20049;-78
2021/08/02 06:30:09;;;;;;;6.10;3.50;;;20.40;99.90;;;20.55;59.79;101335.00;5076186;28;20063;-80
2021/08/02 06:32:39;;;;;;;4.68;3.05;;;20.30;99.90;;;20.40;60.31;101314.03;5076161;28;20045;-80
2021/08/02 06:35:09;;;;;;;;;;;20.20;99.90;;;20.55;61.38;101332.31;5077258;28;20075;-79
2021/08/02 06:37:40;;;;;;;7.25;3.67;;;20.20;99.90;;;20.56;61.75;101338.53;5076460;28;19920;-79
2021/08/02 06:40:11;;;;;;;5.40;3.13;;;20.20;99.90;;;20.40;61.31;101329.31;5076365;28;20102;-78
2021/08/02 06:42:40;;;;;;;5.70;3.38;;;20.20;99.90;;;20.26;60.30;101327.13;5076430;28;20041;-78
2021/08/02 06:45:11;;;;;;;7.70;3.20;;;20.00;99.90;;;20.31;60.94;101330.53;5076720;28;20076;-78
2021/08/02 06:47:41;;;;;;;7.40;3.55;;;20.00;99.90;;;20.32;60.69;101332.28;5076206;28;20048;-78
2021/08/02 06:50:11;;;;;;;5.65;3.33;;;20.00;99.90;;;20.51;60.45;101337.84;5075845;28;20048;-79
2021/08/02 06:52:40;;;;;;;5.45;3.20;;;20.10;99.90;;;20.27;60.19;101333.38;5076121;28;20127;-78
2021/08/02 06:55:10;;;;;;;6.55;3.00;;;20.00;99.90;;;20.03;60.48;101337.81;5076108;28;20103;-79
2021/08/02 06:57:39;;;;;;;8.38;3.67;;;19.70;99.90;;;19.79;62.11;101342.22;5075941;28;20081;-79
2021/08/02 07:00:09;;;;;;;7.25;3.55;;;19.50;99.90;;;20.05;62.73;101368.19;5078119;28;20424;-78
2021/08/02 07:02:37;;;;;;;4.38;3.33;;;19.60;99.90;;;20.17;62.29;101311.31;5075647;28;20045;-73
2021/08/02 07:05:09;;;;;;;5.38;3.38;;;19.90;99.90;;;20.30;59.19;101339.53;5058114;28;20436;-81
2021/08/02 07:07:38;;;;;;;9.18;3.50;;;20.00;99.90;;;20.48;57.96;101343.31;5075879;28;20041;-79
2021/08/02 07:10:09;;;;;;;5.55;3.38;;;20.10;99.90;;;20.59;57.49;101347.38;5074827;28;20040;-81
2021/08/02 07:12:37;;;;;;;3.92;3.47;;;20.20;99.90;;;20.80;58.65;101334.03;5075747;28;20045;-81
2021/08/02 07:15:08;;;;;;;4.97;2.97;;;20.50;99.90;;;20.97;58.87;101353.06;5075664;28;20059;-80
2021/08/02 07:17:36;;;;;;;8.48;3.28;;;20.70;99.90;;;21.00;59.53;101347.59;5075656;28;20046;-81
2021/08/02 07:20:10;;;;;;;6.53;3.55;;;20.80;99.90;;;20.89;58.96;101353.38;5075759;28;20048;-80
2021/08/02 07:22:39;;;;;;;6.93;3.75;;;20.70;99.90;;;20.40;60.01;101361.56;5075481;28;20574;-78
2021/08/02 07:25:09;;;;;;;6.00;3.42;;;20.30;99.90;;;19.87;61.91;101360.75;5075612;28;20135;-79
2021/08/02 07:27:38;;;;;;;7.43;3.30;;;19.80;99.90;;;19.56;63.54;101363.59;5075260;28;20052;-78
2021/08/02 07:30:09;;;;;;;7.55;3.72;;;19.50;99.90;;;19.63;64.59;101366.94;5075292;28;20078;-77
2021/08/02 07:32:38;;;;;;;7.68;4.10;;;19.40;99.90;;;19.68;65.05;101362.31;5057468;28;20056;-78
2021/08/02 07:35:10;;;;;;;7.20;3.95;;;19.40;99.90;;;19.72;65.86;101366.66;5075285;28;20048;-76
2021/08/02 07:37:41;;;;;;;7.07;3.83;;;19.50;99.90;;;19.76;66.61;101377.22;5075366;28;20119;-77
2021/08/02 07:40:11;;;;;;;8.77;3.67;;;19.50;99.90;;;19.81;66.14;101363.66;5075271;28;20052;-75
2021/08/02 07:42:40;;;;;;;7.97;3.55;;;19.50;99.90;;;19.85;66.55;101373.34;5075263;28;20093;-79
2021/08/02 07:45:10;;;;;;;7.30;3.97;;;19.50;99.90;;;19.94;66.08;101369.47;5057133;28;20367;-78
2021/08/02 07:47:39;;;;;;;9.13;4.03;;;19.60;99.90;;;20.05;65.50;101378.03;5075033;28;20119;-76
2021/08/02 07:50:12;;;;;;;6.63;4.22;;;19.70;99.90;;;20.15;65.02;101366.91;5074995;28;20098;-78
2021/08/02 07:52:41;;;;;;;6.43;4.22;;;19.80;99.90;;;20.06;64.91;101356.50;5075122;28;20053;-78
2021/08/02 07:55:12;;;;;;;5.88;3.80;;;19.90;99.90;;;20.19;64.52;101357.81;5074720;28;20041;-79
2021/08/02 07:57:42;;;;;;;6.75;3.92;;;20.00;99.90;;;20.28;64.04;101373.63;5074825;28;20051;-80
2021/08/02 08:00:16;;;;;;;7.07;3.72;;;20.00;99.90;;;20.36;63.28;101376.03;5074975;28;20086;-78
2021/08/02 08:02:45;;;;;;;7.10;3.58;;;20.00;99.90;;;20.30;63.33;101357.44;5074741;28;20485;-77
2021/08/02 08:05:17;;;;;;;6.22;3.47;;;20.10;99.90;;;20.44;62.86;101380.19;5074803;28;20105;-78
2021/08/02 08:07:47;;;;;;;7.68;3.58;;;20.10;99.90;;;20.40;62.17;101367.78;5074201;28;20052;-75
2021/08/02 08:10:18;;;;;;;5.47;3.50;;;20.10;99.90;;;20.27;62.71;101331.56;5074996;28;20071;-76
2021/08/02 08:12:47;;;;;;;;;;;20.20;99.90;;;20.64;61.86;101377.66;5075021;28;20048;-75
2021/08/02 08:15:17;;;;;;;5.03;3.45;;;20.40;99.90;;;20.73;60.99;101375.56;5074483;28;20277;-74
2021/08/02 08:17:46;;;;;;;5.90;3.47;;;20.40;99.90;;;20.67;60.05;101350.63;5074581;28;20478;-79
2021/08/02 08:20:19;;;;;;;8.35;4.20;;;20.50;99.90;;;20.78;59.92;101376.25;5074115;28;20448;-75
2021/08/02 08:22:48;;;;;;;6.15;3.60;;;20.50;99.90;;;20.75;60.67;101373.69;5074176;28;20072;-74
2021/08/02 08:25:16;;;;;;;7.22;3.60;;;20.40;99.90;;;20.53;61.35;101382.56;5073842;28;20486;-75
2021/08/02 08:27:45;;;;;;;6.30;3.97;;;20.30;99.90;;;20.59;61.06;101386.81;5074073;28;20076;-79
2021/08/02 08:30:15;;;;;;;5.97;3.40;;;20.30;99.90;;;20.77;60.59;101372.66;5074141;28;20052;-78
2021/08/02 08:32:44;;;;;;;6.45;3.92;;;20.40;99.90;;;20.77;61.26;101369.97;5073785;28;20049;-78
2021/08/02 08:35:15;;;;;;;11.23;3.85;;;20.40;99.90;;;20.70;60.74;101357.72;5074148;28;20051;-79
2021/08/02 08:37:44;;;;;;;6.90;3.42;;;20.50;99.90;;;20.96;59.84;101372.84;5074103;28;20052;-78
2021/08/02 08:40:14;;;;;;;5.70;3.80;;;20.60;99.90;;;20.89;58.54;101350.69;5073948;28;20062;-79
2021/08/02 08:42:43;;;;;;;7.07;3.38;;;20.70;99.90;;;20.95;57.98;101371.97;5074027;28;20048;-77
2021/08/02 08:45:13;;;;;;;8.02;3.15;;;20.70;99.90;;;21.00;56.81;101369.97;5074015;28;20045;-79
2021/08/02 08:47:43;;;;;;;4.45;3.00;;;20.70;99.90;;;21.14;55.63;101377.53;5073908;28;20036;-79
2021/08/02 08:50:12;;;;;;;5.75;3.28;;;20.90;99.90;;;20.90;55.09;101367.72;5073867;28;20049;-80
2021/08/02 08:52:42;;;;;;;7.53;3.58;;;20.70;99.90;;;21.13;55.11;101378.47;5073965;28;20501;-83
2021/08/02 08:55:15;;;;;;;4.50;3.40;;;20.90;99.90;;;20.60;54.65;101370.63;5073620;28;20432;-82
2021/08/02 08:57:44;;;;;;;7.03;3.30;;;20.60;99.90;;;20.74;54.41;101378.16;5073479;28;20044;-82
2021/08/02 09:00:23;;;;;;;3.42;3.03;;;20.40;99.90;;;20.73;55.65;101359.41;5073682;28;20060;-79
2021/08/02 09:02:54;;;;;;;9.02;3.28;;;20.50;99.90;;;20.60;55.99;101369.75;5073725;28;20044;-80
2021/08/02 09:05:32;;;;;;;;;;;20.40;99.90;;;20.39;55.70;101349.94;5074056;28;20109;-78
2021/08/02 09:08:02;;;;;;;6.78;3.60;;;20.30;99.90;;;20.46;56.38;101389.06;5073545;28;19924;-79
2021/08/02 09:10:31;;;;;;;4.72;3.05;;;20.20;99.90;;;20.50;55.59;101393.41;5073546;28;20056;-73
2021/08/02 09:13:02;;;;;;;8.23;3.75;;;20.10;99.90;;;20.35;56.37;101391.28;5073480;28;20036;-75
2021/08/02 09:15:34;;;;;;;;;;;20.10;99.90;;;20.44;56.43;101395.47;5074054;28;20055;-74
2021/08/02 09:18:07;;;;;;;6.20;3.65;;;20.20;99.90;;;20.45;56.82;101403.47;5073284;28;20270;-76
2021/08/02 09:20:35;;;;;;;10.43;4.05;;;20.10;99.90;;;20.30;57.25;101395.97;5073408;28;20056;-76
2021/08/02 09:23:12;;;;;;;7.03;3.65;;;20.00;99.90;;;19.87;57.37;101320.47;5073386;28;20090;-76
2021/08/02 09:25:49;;;;;;;5.45;3.28;;;20.10;99.90;;;20.48;57.39;101399.75;5072930;28;20482;-75
2021/08/02 09:28:21;;;;;;;7.53;3.72;;;20.20;99.90;;;20.27;58.25;101390.69;5073040;28;20130;-77
2021/08/02 09:30:56;;;;;;;6.35;3.58;;;20.10;99.90;;;20.31;57.89;101391.44;5073548;28;20509;-77
2021/08/02 09:33:25;;;;;;;7.40;3.70;;;20.00;99.90;;;20.26;58.08;101391.63;5072834;28;20135;-77
2021/08/02 09:35:55;;;;;;;5.25;3.28;;;19.90;99.90;;;20.42;57.31;101397.31;5073283;28;20044;-77
2021/08/02 09:38:26;;;;;;;7.28;3.30;;;20.10;99.90;;;20.57;57.11;101416.47;5072439;28;20098;-78
2021/08/02 09:40:58;;;;;;;9.02;3.63;;;20.30;99.90;;;20.77;56.96;101404.09;5073212;28;20151;-78
2021/08/02 09:43:29;;;;;;;6.45;3.55;;;20.50;99.90;;;20.89;55.73;101398.22;5073140;28;20158;-81
2021/08/02 09:46:08;;;;;;;7.05;4.00;;;20.60;99.90;;;21.03;55.52;101402.19;5073081;28;20052;-77
2021/08/02 09:48:39;;;;;;;5.53;3.22;;;20.80;99.90;;;21.08;54.80;101405.56;5055134;28;20117;-76
2021/08/02 09:51:11;;;;;;;7.68;3.97;;;20.80;99.90;;;21.15;54.78;101401.69;5073049;28;20074;-76
2021/08/02 09:53:43;;;;;;;5.32;3.67;;;20.90;99.90;;;21.09;54.25;101379.53;5072827;28;20127;-76
2021/08/02 09:56:13;;;;;;;5.30;3.40;;;20.90;99.90;;;21.27;53.86;101405.72;5073100;28;20120;-77
2021/08/02 09:58:48;;;;;;;6.95;3.78;;;20.90;99.90;;;21.40;53.89;101402.47;5072957;28;20052;-82
2021/08/02 10:01:19;;;;;;;5.72;3.53;;;21.10;99.90;;;21.57;53.34;101404.47;5073093;28;20052;-82
2021/08/02 10:03:48;;;;;;;4.85;3.17;;;21.20;99.90;;;21.51;54.20;101405.59;5073048;28;20076;-74
2021/08/02 10:06:17;;;;;;;8.05;3.53;;;21.20;99.90;;;21.40;52.75;101410.56;5054979;28;20071;-69
2021/08/02 10:08:47;;;;;;;5.32;3.42;;;21.20;99.90;;;21.25;52.33;101359.16;5072892;28;20045;-70
2021/08/02 10:11:16;;;;;;;4.40;2.83;;;21.30;99.90;;;21.66;52.24;101409.47;5055040;28;20060;-69
2021/08/02 10:13:46;;;;;;;4.57;3.58;;;21.30;99.90;;;21.70;52.00;101400.31;5072944;28;20298;-71
2021/08/02 10:16:16;;;;;;;4.68;3.35;;;21.40;99.90;;;21.75;51.72;101390.25;5072790;28;20045;-70
2021/08/02 10:18:49;;;;;;;4.85;3.55;;;21.50;99.90;;;21.98;51.21;101410.84;5072913;28;20091;-72
2021/08/02 10:21:18;;;;;;;7.18;3.38;;;21.80;99.90;;;22.03;50.71;101407.00;5072893;28;20064;-71
2021/08/02 10:23:49;;;;;;;4.57;3.00;;;21.80;99.90;;;22.13;50.44;101405.69;5072478;28;20048;-70
2021/08/02 10:26:28;;;;;;;7.07;3.40;;;21.80;99.90;;;22.09;49.66;101401.38;5072339;28;20048;-71
2021/08/02 10:29:00;;;;;;;3.38;3.08;;;21.90;99.90;;;21.64;50.87;101330.56;5071451;28;20517;-73
2021/08/02 10:31:29;;;;;;;5.25;2.88;;;21.80;99.90;;;21.76;51.26;101402.75;5072800;28;20041;-71